ADDS METAR Data INFO
IDs: Format: Raw Decoded Include TAF

Data at: 0359 UTC 19 Jul 2018

KCCO 190335Z AUTO 00000KT 10SM CLR 26/22 A2997 RMK AO2 T02590216
KCCO 190315Z AUTO 00000KT 10SM SCT050 26/22 A2998 RMK AO2 T02610216
KCCO 190255Z AUTO 13006KT 10SM BKN050 BKN070 26/22 A2999 RMK AO2 T02640223
KCCO 190235Z AUTO 12006KT 10SM BKN050 OVC065 27/23 A2998 RMK AO2 T02700226
KCCO 190215Z AUTO 00000KT 10SM BKN055 OVC065 28/22 A2997 RMK AO2 LTG DSNT SE T02760223
KCCO 190155Z AUTO 20003KT 10SM BKN055 BKN070 27/22 A2996 RMK AO2 LTG DSNT E AND SE T02700222
KCCO 190135Z AUTO 00000KT 10SM SCT055 27/22 A2995 RMK AO2 LTG DSNT SE AND S T02740222
KCCO 190115Z AUTO 00000KT 10SM CLR 30/21 A2994 RMK AO2 LTG DSNT SE AND S T02960208
KCCO 190055Z AUTO 34003KT 10SM CLR 30/21 A2993 RMK AO2 LTG DSNT SE T02950211
KCCO 190035Z AUTO 34004KT 10SM CLR 30/21 A2993 RMK AO2 LTG DSNT SE T03040210
KCCO 190015Z AUTO 00000KT 10SM CLR 31/21 A2993 RMK AO2 T03070210
KCCO 182355Z AUTO 32003KT 10SM CLR 31/21 A2993 RMK AO2 T03110206 10336 20311
KCCO 182335Z AUTO 36004KT 10SM CLR 32/20 A2992 RMK AO2 T03180197
KCCO 182315Z AUTO 35005KT 10SM CLR 33/19 A2992 RMK AO2 T03250190
KCCO 182255Z AUTO 36006KT 10SM CLR 33/20 A2992 RMK AO2 T03270195
KCCO 182235Z AUTO 35007KT 10SM SCT046 33/20 A2992 RMK AO2 T03290195
KCCO 182215Z AUTO 05003KT 10SM SCT047 SCT055 33/21 A2992 RMK AO2 T03270209
KCCO 182155Z AUTO 04005KT 10SM BKN047 BKN055 32/21 A2991 RMK AO2 T03200212
KCCO 182135Z AUTO 35007KT 10SM CLR 33/19 A2992 RMK AO2 T03330192
KCCO 182115Z AUTO 36007KT 10SM SCT048 SCT055 33/18 A2992 RMK AO2 T03340183
KCCO 182055Z AUTO 35006KT 10SM SCT048 SCT055 33/20 A2992 RMK AO2 LTG DSNT SW T03320202
KCCO 182035Z AUTO 04003KT 10SM CLR 33/20 A2993 RMK AO2 T03320195
KCCO 182015Z AUTO 34006KT 10SM SCT046 SCT060 33/19 A2994 RMK AO2 T03320187
KCCO 181955Z AUTO 05005KT 10SM SCT046 SCT060 33/21 A2994 RMK AO2 T03250210
KCCO 181935Z AUTO 00000KT 10SM CLR 33/20 A2996 RMK AO2 LTG DSNT SW T03250197
KCCO 181915Z AUTO 05004KT 10SM CLR 33/20 A2996 RMK AO2 T03280201
KCCO 181855Z AUTO 02005KT 10SM CLR 33/20 A2997 RMK AO2 T03260195
KCCO 181835Z AUTO 01004KT 10SM CLR 32/21 A2998 RMK AO2 LTG DSNT SW T03200205
KCCO 181815Z AUTO 01007KT 10SM SCT035 32/20 A2998 RMK AO2 LTG DSNT SW T03200202
KCCO 181755Z AUTO 00000KT 10SM SCT033 31/21 A2999 RMK AO2 T03140206 10316 20240
KCCO 181735Z AUTO 00000KT 10SM CLR 31/20 A2999 RMK AO2 T03090203
KCCO 181715Z AUTO 05003KT 10SM SCT029 31/22 A3000 RMK AO2 T03060215
KCCO 181655Z AUTO 35005KT 10SM SCT029 31/22 A3001 RMK AO2 T03060216
KCCO 181635Z AUTO 00000KT 10SM SCT029 30/22 A3001 RMK AO2 T03020217
KCCO 181615Z AUTO 00000KT 10SM CLR 30/22 A3001 RMK AO2 T02980219
KCCO 181555Z AUTO 00000KT 10SM CLR 29/22 A3001 RMK AO2 T02910220
KCCO 181535Z AUTO 00000KT 10SM CLR 29/22 A3001 RMK AO2 T02910224
KCCO 181515Z AUTO 00000KT 10SM CLR 29/22 A3002 RMK AO2 T02870221
KCCO 181455Z AUTO 00000KT 10SM CLR 28/22 A3002 RMK AO2 T02800220
KCCO 181435Z AUTO 31004KT 10SM CLR 28/22 A3002 RMK AO2 T02800223
KCCO 181415Z AUTO 30003KT 10SM CLR 27/22 A3001 RMK AO2 T02740221
KCCO 181355Z AUTO 00000KT 10SM BKN100 27/22 A3001 RMK AO2 T02670218
KCCO 181335Z AUTO 31003KT 10SM BKN100 26/22 A3002 RMK AO2 T02640217
KCCO 181315Z AUTO 32004KT 10SM BKN090 26/22 A3002 RMK AO2 T02600219
KCCO 181255Z AUTO 33005KT 10SM SCT010 BKN090 26/22 A3002 RMK AO2 T02620222
KCCO 181235Z AUTO 30004KT 10SM CLR 26/22 A3001 RMK AO2 T02550222
KCCO 181215Z AUTO 30003KT 10SM CLR 25/22 A3002 RMK AO2 T02470221
KCCO 181155Z AUTO 26003KT 7SM BKN002 24/22 A3001 RMK AO2 LTG DSNT SW T02380223 10252 20230
KCCO 181135Z AUTO 28003KT 2 1/2SM BR OVC002 24/22 A3001 RMK AO2 T02350222
KCCO 181115Z AUTO 29003KT 3/4SM BR OVC002 24/22 A3000 RMK AO2 T02350222
KCCO 181055Z AUTO 28003KT 1/4SM FG OVC002 24/22 A3000 RMK AO2 T02350221
KCCO 181035Z AUTO 00000KT 3/4SM BR OVC002 23/22 A2999 RMK AO2 T02330220
KCCO 181015Z AUTO 00000KT 5SM BR BKN002 23/22 A2999 RMK AO2 T02330220
KCCO 180955Z AUTO 00000KT 7SM CLR 23/22 A2998 RMK AO2 T02320217
KCCO 180935Z AUTO 00000KT 7SM CLR 23/22 A2998 RMK AO2 T02310216
KCCO 180915Z AUTO 00000KT 10SM CLR 23/22 A2998 RMK AO2 T02310215
KCCO 180855Z AUTO 00000KT 10SM CLR 23/22 A2998 RMK AO2 T02300215
KCCO 180835Z AUTO 00000KT 10SM CLR 23/22 A2997 RMK AO2 T02300215
KCCO 180815Z AUTO 26003KT 10SM CLR 23/21 A2997 RMK AO2 T02300213
KCCO 180755Z AUTO 00000KT 10SM CLR 23/22 A2997 RMK AO2 T02340215
KCCO 180735Z AUTO 00000KT 10SM CLR 24/22 A2997 RMK AO2 T02350216
KCCO 180715Z AUTO 00000KT 10SM CLR 24/22 A2997 RMK AO2 T02400216
KCCO 180655Z AUTO 00000KT 10SM CLR 24/22 A2998 RMK AO2 T02420216
KCCO 180635Z AUTO 00000KT 10SM CLR 24/22 A2998 RMK AO2 T02400217
KCCO 180615Z AUTO 00000KT 10SM CLR 25/22 A2999 RMK AO2 T02470220
KCCO 180555Z AUTO 34004KT 10SM CLR 25/22 A2999 RMK AO2 T02490217 10288 20246 403180235
KCCO 180535Z AUTO 00000KT 10SM CLR 25/22 A3000 RMK AO2 T02510220
KCCO 180515Z AUTO 00000KT 10SM CLR 25/23 A3001 RMK AO2 T02470225
KCCO 180455Z AUTO 00000KT 10SM CLR 25/23 A3001 RMK AO2 T02490226
KCCO 180435Z AUTO 00000KT 10SM CLR 25/23 A3001 RMK AO2 T02500227
KCCO 180415Z AUTO 00000KT 10SM CLR 25/23 A3001 RMK AO2 T02530229
KCCO 180355Z AUTO 00000KT 10SM CLR 26/23 A3001 RMK AO2 T02550230
KCCO 180335Z AUTO 00000KT 10SM CLR 25/23 A3001 RMK AO2 T02520230
KCCO 180315Z AUTO 00000KT 10SM CLR 25/23 A3001 RMK AO2 T02530230
KCCO 180255Z AUTO 00000KT 10SM CLR 26/23 A3002 RMK AO2 T02550231
KCCO 180235Z AUTO 00000KT 10SM CLR 26/23 A3001 RMK AO2 T02560231
KCCO 180215Z AUTO 00000KT 10SM CLR 26/23 A3000 RMK AO2 T02600230
KCCO 180155Z AUTO 00000KT 10SM CLR 26/23 A3000 RMK AO2 T02620230
KCCO 180135Z AUTO 00000KT 10SM CLR 27/23 A3000 RMK AO2 T02660230
KCCO 180115Z AUTO 00000KT 10SM CLR 27/23 A3000 RMK AO2 T02660232
KCCO 180055Z AUTO 00000KT 10SM CLR 27/23 A3000 RMK AO2 LTG DSNT SW T02700233
KCCO 180035Z AUTO 00000KT 10SM CLR 28/23 A3001 RMK AO2 T02760233
KCCO 180015Z AUTO 00000KT 10SM CLR 29/23 A3001 RMK AO2 T02850233
KCCO 172355Z AUTO 00000KT 10SM CLR 29/23 A3000 RMK AO2 T02890230 10318 20289
KCCO 172335Z AUTO 00000KT 10SM CLR 30/23 A3000 RMK AO2 LTG DSNT S T02970230
KCCO 172315Z AUTO 27004KT 10SM VCTS CLR 30/23 A2999 RMK AO2 LTG DSNT SE W AND NW T02990231
KCCO 172255Z AUTO 26006KT 10SM CLR 30/23 A2998 RMK AO2 T02980234
KCCO 172235Z AUTO 25003KT 10SM CLR 30/23 A2998 RMK AO2 T02970233
KCCO 172215Z AUTO 27003KT 10SM CLR 29/23 A2998 RMK AO2 LTG DSNT SW T02940228
KCCO 172155Z AUTO 00000KT 10SM SCT029 SCT050 30/24 A2998 RMK AO2 LTG DSNT SW T02950235
KCCO 172135Z AUTO 26004KT 10SM CLR 31/23 A2999 RMK AO2 T03060230
KCCO 172115Z AUTO 26006KT 10SM CLR 32/22 A2999 RMK AO2 LTG DSNT SW T03160223
KCCO 172055Z AUTO 23004KT 10SM CLR 31/22 A2999 RMK AO2 T03130217
KCCO 172035Z AUTO 23006KT 10SM CLR 32/23 A2998 RMK AO2 T03160234
KCCO 172015Z AUTO 28005KT 10SM CLR 31/23 A2999 RMK AO2 T03130234
KCCO 171955Z AUTO 27005KT 10SM CLR 31/24 A2999 RMK AO2 T03130237
KCCO 171935Z AUTO 00000KT 10SM SCT029 31/23 A3000 RMK AO2 T03050228
KCCO 171915Z AUTO 26004KT 10SM SCT029 SCT037 31/23 A3000 RMK AO2 LTG DSNT N AND W T03110228
KCCO 171855Z AUTO 00000KT 10SM SCT031 SCT070 32/22 A3001 RMK AO2 T03150224
KCCO 171835Z AUTO 28003KT 10SM SCT031 SCT040 BKN070 31/23 A3002 RMK AO2 T03120225
KCCO 171815Z AUTO 25003KT 10SM BKN029 BKN035 BKN043 31/23 A3002 RMK AO2 T03100225
KCCO 171755Z AUTO 00000KT 10SM BKN029 BKN033 BKN048 31/23 A3003 RMK AO2 T03060229 10309 20245
KCCO 171735Z AUTO 24004KT 10SM SCT027 BKN033 BKN060 30/23 A3004 RMK AO2 T03040228
KCCO 171715Z AUTO 00000KT 10SM SCT026 SCT033 SCT039 31/22 A3004 RMK AO2 T03060222
KCCO 171655Z AUTO 00000KT 10SM SCT028 BKN035 BKN041 30/22 A3005 RMK AO2 T02970222
KCCO 171635Z AUTO 30003KT 10SM SCT024 BKN035 30/23 A3005 RMK AO2 T03020229
KCCO 171615Z AUTO 29003KT 10SM BKN024 BKN033 30/22 A3006 RMK AO2 T02960221